Time;durP1;ratioP1;P1;durP2;ratioP2;P2;SDS_P1;SDS_P2;PMS_P1;PMS_P2;Temp;Humidity;BMP_temperature;BMP_pressure;BME280_temperature;BME280_humidity;BME280_pressure;Samples;Min_cycle;Max_cycle;Signal;HPM_P1;HPM_P2
2022/05/31 00:01:24;;;;;;;0.10;0.10;;;;;;;21.46;41.17;100993.00;5112380;28;20138;-33
2022/05/31 00:03:50;;;;;;;0.10;0.10;;;;;;;21.46;41.27;100998.56;5130367;28;20071;-33
2022/05/31 00:06:16;;;;;;;0.10;0.10;;;;;;;21.45;41.24;100989.41;5130339;28;20324;-34
2022/05/31 00:08:44;;;;;;;0.10;0.10;;;;;;;21.45;41.20;100983.06;5127227;28;20423;-33
2022/05/31 00:11:09;;;;;;;0.10;0.10;;;;;;;21.45;41.28;100989.41;5129578;27;20050;-33
2022/05/31 00:13:35;;;;;;;0.10;0.10;;;;;;;21.45;41.25;100985.81;5131798;28;20065;-35
2022/05/31 00:16:00;;;;;;;0.10;0.10;;;;;;;21.44;41.16;100985.00;5129550;28;20039;-32
2022/05/31 00:18:26;;;;;;;0.10;0.10;;;;;;;21.44;41.37;100985.00;5129449;28;20039;-32
2022/05/31 00:20:52;;;;;;;0.10;0.10;;;;;;;21.44;41.25;100978.63;5128147;28;20046;-32
2022/05/31 00:23:20;;;;;;;0.10;0.10;;;;;;;21.44;41.27;100981.41;5127587;28;20122;-32
2022/05/31 00:25:46;;;;;;;0.10;0.10;;;;;;;21.43;41.24;100974.22;5129718;28;20097;-32
2022/05/31 00:28:12;;;;;;;0.10;0.10;;;;;;;21.43;41.34;100983.34;5128302;28;20088;-33
2022/05/31 00:30:38;;;;;;;0.10;0.10;;;;;;;21.43;41.36;100979.78;5129654;28;20077;-34
2022/05/31 00:33:05;;;;;;;0.10;0.10;;;;;;;21.43;41.25;100985.31;5112958;28;20489;-33
2022/05/31 00:35:33;;;;;;;0.10;0.10;;;;;;;21.43;41.35;100988.91;5129424;28;20427;-34
2022/05/31 00:38:00;;;;;;;0.10;0.10;;;;;;;21.42;41.21;100981.72;5128841;28;20097;-33
2022/05/31 00:40:28;;;;;;;0.10;0.10;;;;;;;21.43;41.21;100979.78;5110689;28;20561;-34
2022/05/31 00:43:02;;;;;;;0.10;0.10;;;;;;;21.41;41.27;100980.03;5129525;28;20097;-33
2022/05/31 00:45:39;;;;;;;0.10;0.10;;;;;;;21.42;41.21;100978.94;5127762;28;20051;-33
2022/05/31 00:48:08;;;;;;;0.10;0.10;;;;;;;21.41;41.36;100980.03;5126460;28;20099;-34
2022/05/31 00:50:38;;;;;;;0.10;0.10;;;;;;;21.41;41.20;100980.03;5129616;28;20070;-37
2022/05/31 00:53:07;;;;;;;0.10;0.10;;;;;;;21.41;41.35;100974.50;5129868;28;20255;-33
2022/05/31 00:55:36;;;;;;;0.10;0.10;;;;;;;21.42;41.18;100983.66;5127420;28;20122;-33
2022/05/31 00:58:07;;;;;;;0.10;0.10;;;;;;;21.41;41.37;100982.00;5128640;28;20062;-34
2022/05/31 01:00:36;;;;;;;0.10;0.10;;;;;;;21.42;41.42;100980.91;5130276;28;20462;-32
2022/05/31 01:03:03;;;;;;;0.10;0.10;;;;;;;21.41;41.27;100979.22;5109911;28;20147;-34
2022/05/31 01:05:29;;;;;;;0.10;0.10;;;;;;;21.41;41.26;100980.03;5110888;28;20039;-34
2022/05/31 01:07:54;;;;;;;0.10;0.10;;;;;;;21.40;41.45;100972.03;5128027;27;21244;-32
2022/05/31 01:10:21;;;;;;;0.10;0.10;;;;;;;21.40;41.35;100970.09;5126462;27;20399;-33
2022/05/31 01:12:47;;;;;;;0.10;0.10;;;;;;;21.41;41.21;100971.72;5126980;28;20090;-35
2022/05/31 01:15:15;;;;;;;0.10;0.10;;;;;;;21.39;41.41;100970.41;5126592;28;20081;-34
2022/05/31 01:17:42;;;;;;;0.10;0.10;;;;;;;21.39;41.30;100965.66;5126499;28;20051;-32
2022/05/31 01:20:10;;;;;;;0.10;0.10;;;;;;;21.40;41.15;100972.03;5128908;28;20168;-32
2022/05/31 01:22:39;;;;;;;0.10;0.10;;;;;;;21.40;41.22;100975.63;5125753;28;20081;-35
2022/05/31 01:25:32;;;;;;;0.10;0.10;;;;;;;21.39;41.44;100967.63;5126269;28;20306;-33
2022/05/31 01:28:26;;;;;;;0.10;0.10;;;;;;;21.39;41.31;100967.63;5114487;28;20568;-33
2022/05/31 01:31:06;;;;;;;0.10;0.10;;;;;;;21.38;41.44;100969.56;5110205;28;20130;-33
2022/05/31 01:33:47;;;;;;;0.10;0.10;;;;;;;21.38;41.28;100969.56;5124668;28;20145;-33
2022/05/31 01:36:16;;;;;;;0.10;0.10;;;;;;;21.39;41.35;100962.09;5123732;28;20465;-33
2022/05/31 01:38:47;;;;;;;0.10;0.10;;;;;;;21.39;41.42;100967.63;5120687;28;20074;-34
2022/05/31 01:41:19;;;;;;;0.20;0.20;;;;;;;21.38;41.33;100965.97;5125415;27;20082;-35
2022/05/31 01:43:46;;;;;;;0.10;0.10;;;;;;;21.38;41.26;100961.25;5124826;27;20742;-32
2022/05/31 01:46:18;;;;;;;0.10;0.10;;;;;;;21.37;41.37;100956.81;5127240;28;20039;-34
2022/05/31 01:48:45;;;;;;;0.10;0.10;;;;;;;21.39;41.33;100956.53;5125074;28;20363;-33
2022/05/31 01:51:11;;;;;;;0.10;0.10;;;;;;;21.37;41.29;100956.81;5128008;28;20531;-34
2022/05/31 01:53:37;;;;;;;0.20;0.20;;;;;;;21.37;41.42;100950.44;5125801;27;20181;-34
2022/05/31 01:56:04;;;;;;;0.20;0.20;;;;;;;21.36;41.47;100935.78;5108278;28;20043;-33
2022/05/31 01:58:34;;;;;;;0.10;0.10;;;;;;;21.36;41.33;100946.88;5128524;28;20079;-33
2022/05/31 02:01:01;;;;;;;0.20;0.20;;;;;;;21.36;41.35;100935.78;5125214;28;20393;-33
2022/05/31 02:03:28;;;;;;;0.10;0.10;;;;;;;21.37;41.38;100944.91;5108516;28;20126;-34
2022/05/31 02:05:54;;;;;;;0.10;0.10;;;;;;;21.36;41.31;100944.09;5126381;28;20432;-33
2022/05/31 02:08:23;;;;;;;0.10;0.10;;;;;;;21.37;41.47;100942.13;5126902;28;20431;-35
2022/05/31 02:10:49;;;;;;;0.10;0.10;;;;;;;21.36;41.46;100941.31;5130934;27;20558;-33
2022/05/31 02:13:16;;;;;;;0.20;0.20;;;;;;;21.36;41.34;100938.56;5108540;28;20047;-37
2022/05/31 02:15:42;;;;;;;0.10;0.10;;;;;;;21.35;41.41;100945.22;5128012;28;20076;-34
2022/05/31 02:18:09;;;;;;;0.10;0.10;;;;;;;21.35;41.44;100942.44;5127140;28;20774;-33
2022/05/31 02:20:34;;;;;;;0.10;0.10;;;;;;;21.35;41.43;100945.22;5108846;28;20479;-34
2022/05/31 02:23:00;;;;;;;0.10;0.10;;;;;;;21.36;41.56;100933.00;5126808;28;20047;-33
2022/05/31 02:25:26;;;;;;;0.10;0.10;;;;;;;21.35;41.42;100931.38;5127559;28;20117;-35
2022/05/31 02:27:51;;;;;;;0.10;0.10;;;;;;;21.35;41.32;100936.91;5126725;28;20050;-35
2022/05/31 02:30:17;;;;;;;0.10;0.10;;;;;;;21.35;41.29;100925.81;5126788;28;20146;-33
2022/05/31 02:32:43;;;;;;;0.10;0.10;;;;;;;21.34;41.42;100928.91;5125362;28;20043;-33
2022/05/31 02:35:10;;;;;;;0.10;0.10;;;;;;;21.35;41.39;100930.53;5122141;28;20102;-33
2022/05/31 02:37:36;;;;;;;0.10;0.10;;;;;;;21.34;41.63;100923.38;5128064;28;20499;-33
2022/05/31 02:40:03;;;;;;;0.10;0.10;;;;;;;21.35;41.43;100925.00;5125861;28;20531;-35
2022/05/31 02:42:29;;;;;;;0.13;0.13;;;;;;;21.34;41.29;100926.13;5124017;28;20486;-33
2022/05/31 02:44:55;;;;;;;0.10;0.10;;;;;;;21.34;41.42;100931.69;5126752;28;20066;-35
2022/05/31 02:47:21;;;;;;;0.10;0.10;;;;;;;21.33;41.44;100927.22;5127358;28;20035;-32
2022/05/31 02:49:47;;;;;;;0.10;0.10;;;;;;;21.33;41.50;100932.78;5124146;28;20079;-35
2022/05/31 02:52:13;;;;;;;0.10;0.10;;;;;;;21.34;41.55;100929.72;5110145;28;20458;-32
2022/05/31 02:54:38;;;;;;;0.10;0.10;;;;;;;21.33;41.53;100927.22;5124150;28;20501;-34
2022/05/31 02:57:04;;;;;;;0.10;0.10;;;;;;;21.33;41.39;100925.31;5126010;28;20053;-33
2022/05/31 02:59:30;;;;;;;0.10;0.10;;;;;;;21.34;41.40;100931.69;5123182;28;20078;-33
2022/05/31 03:01:56;;;;;;;0.10;0.10;;;;;;;21.33;41.28;100925.31;5110063;28;20039;-33
2022/05/31 03:04:22;;;;;;;0.10;0.10;;;;;;;21.33;41.47;100933.63;5106105;28;20100;-34
2022/05/31 03:06:48;;;;;;;0.10;0.10;;;;;;;21.33;41.48;100921.69;5128585;28;20371;-34
2022/05/31 03:09:14;;;;;;;0.10;0.10;;;;;;;21.32;41.53;100925.59;5130218;28;20070;-33
2022/05/31 03:11:45;;;;;;;0.10;0.10;;;;;;;21.31;41.47;100919.19;5131567;28;20043;-32
2022/05/31 03:14:18;;;;;;;0.10;0.10;;;;;;;21.31;41.51;100916.44;5129968;28;20086;-35
2022/05/31 03:16:47;;;;;;;0.10;0.10;;;;;;;21.32;41.66;100914.50;5130858;28;20126;-36
2022/05/31 03:19:16;;;;;;;0.10;0.10;;;;;;;21.32;41.38;100918.09;5125646;28;20051;-33
2022/05/31 03:21:47;;;;;;;0.10;0.10;;;;;;;21.31;41.55;100916.44;5129242;28;20079;-36
2022/05/31 03:24:18;;;;;;;0.10;0.10;;;;;;;21.31;41.64;100916.44;5129363;28;20478;-33
2022/05/31 03:26:45;;;;;;;0.10;0.10;;;;;;;21.31;41.66;100919.19;5130088;28;20079;-35
2022/05/31 03:29:11;;;;;;;0.10;0.10;;;;;;;21.31;41.42;100921.97;5110926;28;20043;-33
2022/05/31 03:31:37;;;;;;;0.10;0.10;;;;;;;21.30;41.52;100918.38;5111127;28;20155;-33
2022/05/31 03:34:03;;;;;;;0.10;0.10;;;;;;;21.31;41.52;100913.66;5112216;28;20138;-33
2022/05/31 03:36:29;;;;;;;0.10;0.10;;;;;;;21.31;41.59;100910.88;5123282;28;20046;-36
2022/05/31 03:38:54;;;;;;;0.10;0.10;;;;;;;21.30;41.54;100912.84;5129782;27;20447;-33
2022/05/31 03:41:20;;;;;;;0.10;0.10;;;;;;;21.31;41.60;100913.66;5131246;27;20118;-36
2022/05/31 03:43:46;;;;;;;0.10;0.10;;;;;;;21.30;41.63;100910.06;5127631;28;20054;-34
2022/05/31 03:46:13;;;;;;;0.10;0.10;;;;;;;21.29;41.63;100904.84;5129981;28;20039;-32
2022/05/31 03:48:39;;;;;;;0.10;0.10;;;;;;;21.30;41.78;100914.78;5109903;28;20135;-33
2022/05/31 03:51:07;;;;;;;0.10;0.10;;;;;;;21.30;41.62;100910.06;5131250;28;20050;-32
2022/05/31 03:53:33;;;;;;;0.10;0.10;;;;;;;21.29;41.44;100910.38;5129725;28;20557;-34
2022/05/31 03:56:02;;;;;;;0.10;0.10;;;;;;;21.30;41.55;100909.25;5130009;28;20085;-32
2022/05/31 03:58:27;;;;;;;;;;;;;;;21.29;41.48;100915.91;5113076;28;20074;-34
2022/05/31 04:00:53;;;;;;;0.20;0.20;;;;;;;21.27;41.40;100907.88;5131530;28;20326;-34
2022/05/31 04:03:18;;;;;;;0.10;0.10;;;;;;;21.28;41.62;100908.69;5130288;28;20047;-32
2022/05/31 04:05:45;;;;;;;0.10;0.10;;;;;;;21.27;41.46;100907.06;5129677;28;20067;-32
2022/05/31 04:08:12;;;;;;;0.10;0.10;;;;;;;21.28;41.70;100914.25;5126894;28;20081;-33
2022/05/31 04:10:40;;;;;;;0.10;0.10;;;;;;;21.28;41.56;100909.53;5127070;28;20385;-33
2022/05/31 04:13:06;;;;;;;;;;;;;;;21.28;41.63;100905.94;5125374;28;20074;-34
2022/05/31 04:15:33;;;;;;;0.10;0.10;;;;;;;21.27;41.60;100899.56;5126420;27;19966;-36
2022/05/31 04:17:59;;;;;;;0.10;0.10;;;;;;;21.27;41.56;100898.75;5127385;28;21331;-34
2022/05/31 04:20:25;;;;;;;0.10;0.10;;;;;;;21.27;41.51;100910.66;5130863;28;20098;-34
2022/05/31 04:22:51;;;;;;;0.10;0.10;;;;;;;21.27;41.58;100907.06;5128053;28;20070;-34
2022/05/31 04:25:17;;;;;;;0.10;0.10;;;;;;;21.27;41.72;100907.06;5127064;28;20386;-32
2022/05/31 04:27:42;;;;;;;0.10;0.10;;;;;;;21.27;41.58;100898.75;5126680;28;20055;-35
2022/05/31 04:30:09;;;;;;;0.10;0.10;;;;;;;21.27;41.72;100910.66;5124711;28;20553;-33
2022/05/31 04:32:34;;;;;;;0.10;0.10;;;;;;;21.27;41.68;100907.88;5123592;28;20134;-34
2022/05/31 04:35:01;;;;;;;0.10;0.10;;;;;;;21.27;41.49;100907.88;5123248;28;20164;-35
2022/05/31 04:37:28;;;;;;;0.10;0.10;;;;;;;21.26;41.49;100906.22;5108083;28;20071;-33
2022/05/31 04:39:54;;;;;;;0.10;0.10;;;;;;;21.26;41.45;100909.00;5107109;28;20130;-33
2022/05/31 04:42:20;;;;;;;0.10;0.10;;;;;;;21.26;41.74;100903.47;5125431;28;20043;-36
2022/05/31 04:44:46;;;;;;;0.10;0.10;;;;;;;21.27;41.71;100901.50;5124155;28;20061;-33
2022/05/31 04:47:12;;;;;;;0.10;0.10;;;;;;;21.26;41.73;100906.22;5126957;27;20042;-35
2022/05/31 04:49:38;;;;;;;0.10;0.10;;;;;;;21.26;41.70;100899.88;5124956;28;20500;-32
2022/05/31 04:52:04;;;;;;;0.10;0.10;;;;;;;21.25;41.62;100901.00;5126568;28;20043;-37
2022/05/31 04:54:32;;;;;;;0.10;0.10;;;;;;;21.25;41.50;100904.59;5128616;28;20043;-34
2022/05/31 04:57:00;;;;;;;0.20;0.20;;;;;;;21.25;41.80;100901.00;5110815;28;20496;-35
2022/05/31 04:59:26;;;;;;;0.10;0.10;;;;;;;21.26;41.64;100905.41;5126019;28;20082;-36
2022/05/31 05:01:51;;;;;;;0.10;0.10;;;;;;;21.26;41.74;100902.66;5120906;28;20122;-32
2022/05/31 05:04:17;;;;;;;0.10;0.10;;;;;;;21.26;41.66;100905.41;5126633;28;20050;-32
2022/05/31 05:06:43;;;;;;;0.10;0.10;;;;;;;21.24;41.59;100883.56;5128500;28;20039;-33
2022/05/31 05:09:08;;;;;;;0.10;0.10;;;;;;;21.26;41.28;100894.34;5127894;28;20051;-33
2022/05/31 05:11:34;;;;;;;0.15;0.15;;;;;;;21.25;41.58;100889.91;5128600;28;20039;-32
2022/05/31 05:14:00;;;;;;;0.10;0.10;;;;;;;21.25;41.61;100882.44;5127363;28;20389;-35
2022/05/31 05:16:26;;;;;;;0.10;0.10;;;;;;;21.24;41.74;100891.88;5126216;28;20063;-32
2022/05/31 05:18:54;;;;;;;0.10;0.10;;;;;;;21.25;41.51;100898.22;5088759;28;20451;-33
2022/05/31 05:21:19;;;;;;;0.10;0.10;;;;;;;21.24;41.73;100897.41;5109977;28;20126;-33
2022/05/31 05:23:45;;;;;;;0.10;0.10;;;;;;;21.23;41.88;100895.75;5127795;27;20054;-33
2022/05/31 05:26:12;;;;;;;0.10;0.10;;;;;;;21.24;41.75;100893.78;5124910;28;20056;-33
2022/05/31 05:31:27;;;;;;;0.10;0.10;;;;;;;21.24;41.76;100893.78;5112244;28;20130;-32
2022/05/31 05:33:54;;;;;;;0.10;0.10;;;;;;;21.24;41.80;100893.78;5124396;28;20550;-36
2022/05/31 05:36:20;;;;;;;0.20;0.20;;;;;;;21.23;41.68;100904.03;5124927;28;20071;-33
2022/05/31 05:38:47;;;;;;;0.17;0.17;;;;;;;21.23;41.79;100923.44;5127989;28;20134;-33
2022/05/31 05:41:13;;;;;;;0.10;0.10;;;;;;;21.23;41.81;100922.63;5108260;28;20078;-33
2022/05/31 05:43:40;;;;;;;0.10;0.10;;;;;;;21.23;41.73;100931.75;5124770;28;20131;-33
2022/05/31 05:46:26;;;;;;;0.10;0.10;;;;;;;21.23;41.71;100937.28;5125715;28;20046;-33
2022/05/31 05:48:53;;;;;;;0.13;0.13;;;;;;;21.23;41.56;100940.06;5107251;28;20054;-33
2022/05/31 05:51:22;;;;;;;0.20;0.20;;;;;;;21.23;41.49;100937.28;5128980;28;20035;-33
2022/05/31 05:53:49;;;;;;;0.10;0.10;;;;;;;21.22;41.56;100938.41;5117993;28;21421;-31
2022/05/31 05:56:14;;;;;;;0.10;0.10;;;;;;;21.22;41.59;100934.81;5118251;28;20504;-33
2022/05/31 05:58:41;;;;;;;0.20;0.20;;;;;;;21.23;41.75;100928.16;5122782;28;20039;-32
2022/05/31 06:01:14;;;;;;;0.10;0.10;;;;;;;21.22;41.66;100920.97;5121898;28;20199;-31
2022/05/31 06:04:06;;;;;;;0.10;0.10;;;;;;;21.22;41.49;100924.56;5122306;28;20035;-31
2022/05/31 06:06:34;;;;;;;0.10;0.10;;;;;;;21.22;41.69;100916.25;5107572;28;20035;-34
2022/05/31 06:09:04;;;;;;;0.17;0.17;;;;;;;21.22;41.75;100912.66;5119980;28;20089;-33
2022/05/31 06:11:34;;;;;;;0.10;0.10;;;;;;;21.22;41.79;100910.72;5120887;28;20149;-33
2022/05/31 06:14:13;;;;;;;0.10;0.10;;;;;;;21.23;41.51;100923.44;5122274;28;20127;-32
2022/05/31 06:16:44;;;;;;;0.10;0.10;;;;;;;21.21;41.50;100927.63;5116852;27;20654;-32
2022/05/31 06:19:13;;;;;;;0.10;0.10;;;;;;;21.22;41.70;100932.03;5119524;28;20214;-33
2022/05/31 06:21:39;;;;;;;0.10;0.10;;;;;;;21.23;41.76;100931.75;5124145;28;20509;-33
2022/05/31 06:24:05;;;;;;;0.20;0.20;;;;;;;21.21;41.71;100934.00;5099407;27;20470;-32
2022/05/31 06:26:31;;;;;;;0.10;0.10;;;;;;;21.21;41.65;100939.53;5113628;27;20147;-35
2022/05/31 06:28:57;;;;;;;0.10;0.10;;;;;;;21.21;41.67;100945.06;5122429;28;20613;-31
2022/05/31 06:31:23;;;;;;;0.10;0.10;;;;;;;21.22;41.59;100954.19;5121600;28;20039;-33
2022/05/31 06:33:48;;;;;;;0.20;0.20;;;;;;;20.82;40.31;100958.22;5121056;27;20425;-33
2022/05/31 06:36:14;;;;;;;0.10;0.10;;;;;;;21.07;40.50;100959.88;5121297;28;20055;-34
2022/05/31 06:38:41;;;;;;;0.20;0.20;;;;;;;21.15;40.62;100960.06;5118694;27;20039;-34
2022/05/31 06:41:06;;;;;;;0.10;0.10;;;;;;;21.17;40.65;100949.56;5122950;28;20074;-34
2022/05/31 06:43:33;;;;;;;0.20;0.20;;;;;;;21.15;40.39;100943.47;5121763;28;20047;-36
2022/05/31 06:46:03;;;;;;;0.10;0.10;;;;;;;21.22;40.58;100946.72;5122946;28;20047;-33
2022/05/31 06:48:29;;;;;;;0.10;0.10;;;;;;;21.23;40.86;100945.59;5113557;28;20047;-34
2022/05/31 06:50:55;;;;;;;0.20;0.20;;;;;;;21.24;40.83;100938.97;5117851;28;20200;-33
2022/05/31 06:58:52;;;;;;;0.35;0.20;;;;;;;21.26;40.96;100928.41;5097313;28;20102;-33
2022/05/31 07:01:20;;;;;;;0.10;0.10;;;;;;;21.27;41.10;100920.91;5113909;28;20047;-35
2022/05/31 07:03:46;;;;;;;0.10;0.10;;;;;;;21.28;40.96;100934.44;5113775;28;20508;-32
2022/05/31 07:06:12;;;;;;;0.10;0.10;;;;;;;21.22;41.10;100938.41;5115180;28;20043;-34
2022/05/31 07:08:38;;;;;;;0.10;0.10;;;;;;;21.28;41.40;100928.91;5116159;27;20481;-34
2022/05/31 07:11:06;;;;;;;0.10;0.10;;;;;;;21.35;41.16;100925.81;5122600;28;20130;-33
2022/05/31 07:13:31;;;;;;;;;;;;;;;21.34;41.02;100923.38;5103337;28;20124;-34
2022/05/31 07:16:00;;;;;;;0.10;0.10;;;;;;;21.33;41.12;100928.09;5120480;28;19996;-33
2022/05/31 07:18:42;;;;;;;0.10;0.10;;;;;;;21.34;41.19;100921.41;5112874;28;20102;-32
2022/05/31 07:21:07;;;;;;;0.10;0.10;;;;;;;21.35;41.01;100916.69;5113766;28;20082;-35
2022/05/31 07:23:34;;;;;;;0.10;0.10;;;;;;;21.37;41.26;100908.91;5115360;27;20473;-32
2022/05/31 07:26:00;;;;;;;0.10;0.10;;;;;;;21.38;41.11;100907.81;5115889;28;20528;-31
2022/05/31 07:28:46;;;;;;;0.15;0.15;;;;;;;21.38;41.28;100905.03;5103368;28;20043;-30
2022/05/31 07:31:12;;;;;;;0.10;0.10;;;;;;;21.39;41.09;100915.81;5117759;28;20072;-33
2022/05/31 07:33:38;;;;;;;0.10;0.10;;;;;;;21.41;41.28;100916.31;5120275;28;20494;-33
2022/05/31 07:36:07;;;;;;;0.10;0.10;;;;;;;21.42;41.25;100918.00;5118555;28;20104;-34
2022/05/31 07:38:33;;;;;;;0.10;0.10;;;;;;;21.43;41.03;100908.56;5122657;28;20071;-32
2022/05/31 07:40:59;;;;;;;0.10;0.10;;;;;;;21.43;41.25;100911.31;5120561;27;20047;-32
2022/05/31 07:43:25;;;;;;;0.10;0.10;;;;;;;21.44;41.19;100910.19;5120959;28;20039;-32
2022/05/31 07:46:02;;;;;;;0.10;0.10;;;;;;;21.46;41.36;100909.88;5118731;27;20105;-32
2022/05/31 07:48:27;;;;;;;0.10;0.10;;;;;;;21.47;41.21;100915.16;5118635;28;20470;-33
2022/05/31 07:50:53;;;;;;;0.10;0.10;;;;;;;21.47;41.47;100897.72;5119843;27;20087;-30
2022/05/31 07:53:19;;;;;;;0.10;0.10;;;;;;;21.48;41.25;100904.88;5124355;28;20459;-32
2022/05/31 07:55:53;;;;;;;0.10;0.10;;;;;;;21.50;41.29;100897.09;5116469;27;20051;-33
2022/05/31 07:58:34;;;;;;;0.15;0.15;;;;;;;21.51;41.30;100894.03;5122536;28;20134;-32
2022/05/31 08:01:00;;;;;;;0.10;0.10;;;;;;;21.50;41.21;100895.19;5122590;28;20077;-33
2022/05/31 08:03:26;;;;;;;0.10;0.10;;;;;;;21.52;41.28;100894.88;5117215;28;20047;-34
2022/05/31 08:05:53;;;;;;;0.10;0.10;;;;;;;21.52;41.23;100898.47;5116208;28;20493;-32
2022/05/31 08:08:23;;;;;;;0.10;0.10;;;;;;;21.54;41.14;100904.53;5111368;28;20143;-33
2022/05/31 08:11:04;;;;;;;0.10;0.10;;;;;;;21.55;41.16;100905.38;5118484;28;20088;-32
2022/05/31 08:13:30;;;;;;;0.10;0.10;;;;;;;21.55;41.16;100897.06;5115351;28;20477;-32
2022/05/31 08:15:57;;;;;;;0.10;0.10;;;;;;;21.47;41.89;100897.72;5119015;27;20458;-33
2022/05/31 08:18:23;;;;;;;0.10;0.10;;;;;;;21.55;41.80;100908.13;5117677;28;20078;-35
2022/05/31 08:20:49;;;;;;;0.10;0.10;;;;;;;21.57;41.61;100899.50;5123673;28;20409;-32
2022/05/31 08:23:14;;;;;;;0.10;0.10;;;;;;;21.58;41.54;100903.94;5115621;27;20058;-33
2022/05/31 08:25:40;;;;;;;0.10;0.10;;;;;;;21.58;41.64;100901.97;5119245;28;20702;-37
2022/05/31 08:28:06;;;;;;;0.10;0.10;;;;;;;21.60;41.51;100904.47;5116992;28;20054;-33
2022/05/31 08:30:32;;;;;;;0.10;0.10;;;;;;;21.61;41.29;100895.84;5121379;28;20039;-34
2022/05/31 08:32:58;;;;;;;0.10;0.10;;;;;;;21.61;41.43;100901.38;5118067;28;20051;-35
2022/05/31 08:35:24;;;;;;;0.10;0.10;;;;;;;21.62;41.46;100903.03;5117041;28;20142;-35
2022/05/31 08:38:09;;;;;;;0.10;0.10;;;;;;;21.63;41.62;100906.63;5093344;27;20043;-36
2022/05/31 08:40:43;;;;;;;0.10;0.10;;;;;;;21.64;41.45;100897.22;5111384;27;20047;-33
2022/05/31 08:43:11;;;;;;;0.10;0.10;;;;;;;21.64;41.51;100911.88;5113093;27;20137;-34
2022/05/31 08:45:47;;;;;;;0.10;0.10;;;;;;;21.65;41.48;100909.94;5117974;27;20035;-34
2022/05/31 08:48:32;;;;;;;0.10;0.10;;;;;;;21.64;41.55;100900.81;5114772;27;20066;-32
2022/05/31 08:56:56;;;;;;;0.10;0.10;;;;;;;21.67;41.47;100899.38;5103916;28;20044;-32
2022/05/31 08:59:47;;;;;;;0.10;0.10;;;;;;;21.63;41.55;100901.94;5120793;27;20134;-31
2022/05/31 09:02:16;;;;;;;0.10;0.10;;;;;;;21.51;42.21;100891.28;5104051;27;20070;-32
2022/05/31 09:05:08;;;;;;;0.10;0.10;;;;;;;21.65;41.75;100896.06;5102506;27;20043;-33
2022/05/31 09:07:42;;;;;;;0.10;0.10;;;;;;;21.68;41.72;100884.41;5117000;27;20133;-33
2022/05/31 09:10:22;;;;;;;0.10;0.10;;;;;;;21.70;41.63;100894.06;5116063;28;20138;-32
2022/05/31 09:12:53;;;;;;;0.10;0.10;;;;;;;21.72;41.54;100889.06;5123030;27;20162;-32
2022/05/31 09:15:24;;;;;;;0.10;0.10;;;;;;;21.72;41.49;100886.28;5122360;28;20138;-33
2022/05/31 09:18:04;;;;;;;0.10;0.10;;;;;;;21.74;41.56;100885.97;5116731;28;20477;-33
2022/05/31 09:20:36;;;;;;;0.10;0.10;;;;;;;21.74;41.59;100883.19;5120491;28;20040;-33
2022/05/31 09:23:02;;;;;;;0.10;0.10;;;;;;;21.75;41.53;100879.28;5102717;28;20142;-33
2022/05/31 09:25:32;;;;;;;0.10;0.10;;;;;;;21.77;41.53;100885.38;5117426;27;20042;-36
2022/05/31 09:28:04;;;;;;;0.10;0.10;;;;;;;21.77;41.50;100888.97;5118734;27;20195;-32
2022/05/31 09:30:36;;;;;;;0.10;0.10;;;;;;;21.77;41.52;100888.16;5120027;27;20183;-36
2022/05/31 09:33:24;;;;;;;0.10;0.10;;;;;;;21.78;41.37;100887.03;5116831;27;20469;-32
2022/05/31 09:35:59;;;;;;;;;;;;;;;21.78;41.44;100885.06;5104316;27;20130;-34
2022/05/31 09:39:05;;;;;;;0.10;0.10;;;;;;;21.77;41.38;100891.75;5110126;27;20050;-34
2022/05/31 09:41:52;;;;;;;0.10;0.10;;;;;;;21.80;41.43;100901.38;5084360;27;20178;-35
2022/05/31 09:44:31;;;;;;;0.10;0.10;;;;;;;21.71;41.48;100898.47;5120296;27;20047;-33
2022/05/31 09:47:04;;;;;;;0.10;0.10;;;;;;;21.78;41.34;100893.38;5112985;27;20441;-36
2022/05/31 09:49:48;;;;;;;0.10;0.10;;;;;;;21.83;41.21;100894.44;5099207;28;20528;-33
2022/05/31 09:52:36;;;;;;;0.10;0.10;;;;;;;21.82;41.24;100885.31;5099126;28;20080;-37
2022/05/31 09:57:59;;;;;;;0.10;0.10;;;;;;;21.86;41.22;100897.44;5105176;28;20066;-34
2022/05/31 10:00:25;;;;;;;0.10;0.10;;;;;;;21.86;41.30;100891.91;5118795;28;20182;-34
2022/05/31 10:03:04;;;;;;;0.10;0.10;;;;;;;21.86;41.15;100891.06;5122841;28;20043;-32
2022/05/31 10:05:30;;;;;;;0.10;0.10;;;;;;;21.88;41.16;100883.25;5118554;28;20130;-37
2022/05/31 10:07:57;;;;;;;0.10;0.10;;;;;;;21.87;41.18;100876.91;5100389;28;20046;-33
2022/05/31 10:10:32;;;;;;;0.10;0.10;;;;;;;21.88;41.22;100873.00;5122049;28;20051;-38
2022/05/31 10:13:03;;;;;;;0.10;0.10;;;;;;;21.89;41.22;100869.13;5120795;27;20394;-32
2022/05/31 10:15:34;;;;;;;0.10;0.10;;;;;;;21.90;41.00;100869.94;5105971;28;20043;-35
2022/05/31 10:18:04;;;;;;;0.10;0.10;;;;;;;21.91;41.15;100860.50;5097155;27;20049;-37
2022/05/31 10:20:31;;;;;;;0.10;0.10;;;;;;;21.91;41.04;100866.03;5117638;27;20120;-35
2022/05/31 10:23:01;;;;;;;0.10;0.10;;;;;;;21.92;41.14;100864.91;5118046;27;20046;-33
2022/05/31 10:25:45;;;;;;;0.10;0.10;;;;;;;21.93;41.19;100861.00;5116852;27;20130;-32
2022/05/31 10:28:29;;;;;;;0.10;0.10;;;;;;;21.93;41.18;100861.00;5118955;27;20089;-33
2022/05/31 10:31:28;;;;;;;0.10;0.10;;;;;;;21.83;41.42;100862.00;5122178;28;20134;-33
2022/05/31 10:33:57;;;;;;;0.10;0.10;;;;;;;21.92;41.19;100860.19;5097525;27;20047;-32
2022/05/31 10:36:23;;;;;;;;;;;;;;;21.94;41.10;100854.34;5122397;27;20047;-37
2022/05/31 10:38:50;;;;;;;0.10;0.10;;;;;;;21.95;41.10;100853.22;5116290;27;20011;-34
2022/05/31 10:41:21;;;;;;;0.10;0.10;;;;;;;21.93;40.91;100855.47;5113803;27;20138;-32
2022/05/31 10:44:15;;;;;;;0.10;0.10;;;;;;;21.99;41.04;100851.50;5114874;27;20534;-36
2022/05/31 10:46:43;;;;;;;0.10;0.10;;;;;;;21.99;40.96;100844.00;5113785;28;20083;-35
2022/05/31 10:49:17;;;;;;;0.10;0.10;;;;;;;22.00;41.00;100844.81;5113019;28;20619;-33
2022/05/31 10:51:58;;;;;;;0.10;0.10;;;;;;;22.00;40.97;100842.03;5115300;27;20074;-32
2022/05/31 10:54:48;;;;;;;0.10;0.10;;;;;;;21.99;41.04;100838.44;5113194;28;20109;-34
2022/05/31 10:57:41;;;;;;;0.10;0.10;;;;;;;22.00;40.96;100845.63;5100942;28;20200;-33
2022/05/31 11:00:18;;;;;;;0.10;0.10;;;;;;;22.02;41.03;100839.78;5101508;28;20047;-33
2022/05/31 11:02:56;;;;;;;0.10;0.10;;;;;;;22.03;41.06;100844.22;5113271;27;20074;-35
2022/05/31 11:05:39;;;;;;;0.10;0.10;;;;;;;22.02;40.98;100831.47;5114594;27;20047;-33
2022/05/31 11:11:33;;;;;;;0.10;0.10;;;;;;;22.04;40.95;100832.00;5081354;27;20150;-34
2022/05/31 11:14:37;;;;;;;0.10;0.10;;;;;;;22.05;41.00;100830.88;5102666;28;20501;-34
2022/05/31 11:17:13;;;;;;;0.10;0.10;;;;;;;22.04;40.96;100837.53;5109325;27;20497;-32
2022/05/31 11:19:57;;;;;;;0.10;0.10;;;;;;;22.08;41.08;100835.00;5100180;27;20094;-31
2022/05/31 11:22:53;;;;;;;0.10;0.10;;;;;;;22.14;40.87;100828.25;5107647;27;20159;-33
2022/05/31 11:25:33;;;;;;;0.10;0.10;;;;;;;22.08;41.06;100837.78;5101295;28;20554;-32
2022/05/31 11:28:23;;;;;;;0.10;0.10;;;;;;;22.14;40.86;100828.25;5109223;27;20075;-34
2022/05/31 11:31:29;;;;;;;0.10;0.10;;;;;;;22.11;40.72;100829.66;5098995;28;20142;-32
2022/05/31 11:34:20;;;;;;;0.10;0.10;;;;;;;22.13;40.72;100832.97;5104686;27;20063;-33
2022/05/31 11:37:09;;;;;;;0.10;0.10;;;;;;;22.12;40.88;100827.72;5087158;28;20332;-36
2022/05/31 11:42:32;;;;;;;0.10;0.10;;;;;;;22.12;40.82;100831.34;5148331;27;20573;-31
2022/05/31 11:45:35;;;;;;;0.10;0.10;;;;;;;22.14;40.94;100825.47;5117845;27;20051;-33
2022/05/31 11:48:30;;;;;;;0.10;0.10;;;;;;;22.13;40.91;100821.06;5121309;27;20462;-33
2022/05/31 11:51:37;;;;;;;0.10;0.10;;;;;;;22.14;40.82;100825.47;5118291;27;20093;-33
2022/05/31 11:54:24;;;;;;;0.10;0.10;;;;;;;22.14;40.67;100823.53;5094410;27;20181;-33
2022/05/31 11:57:04;;;;;;;0.10;0.10;;;;;;;22.15;40.65;100818.81;5134040;27;20071;-34
2022/05/31 11:59:36;;;;;;;0.10;0.10;;;;;;;22.15;40.81;100818.81;5135557;27;20070;-32
2022/05/31 12:02:07;;;;;;;0.10;0.10;;;;;;;22.16;40.78;100817.69;5124781;27;20480;-32
2022/05/31 12:04:38;;;;;;;0.10;0.10;;;;;;;22.17;40.82;100819.34;5132561;27;20134;-35
2022/05/31 12:07:12;;;;;;;0.10;0.10;;;;;;;22.16;40.77;100809.38;5108734;27;20330;-33